createdAt,value
2018-11-05T00:00:18.486Z,1003.93
2018-11-05T00:01:18.471Z,1003.92
2018-11-05T00:02:18.482Z,1003.90
2018-11-05T00:03:18.450Z,1003.85
2018-11-05T00:04:18.439Z,1003.86
2018-11-05T00:05:18.433Z,1003.82
2018-11-05T00:06:18.417Z,1003.77
2018-11-05T00:07:18.442Z,1003.79
2018-11-05T00:08:18.410Z,1003.76
2018-11-05T00:09:18.384Z,1003.74
2018-11-05T00:10:18.374Z,1003.73
2018-11-05T00:11:18.361Z,1003.75
2018-11-05T00:12:18.364Z,1003.73
2018-11-05T00:13:18.344Z,1003.69
2018-11-05T00:14:18.329Z,1003.74
2018-11-05T00:15:18.320Z,1003.77
2018-11-05T00:16:18.325Z,1003.74
2018-11-05T00:17:18.325Z,1003.75
2018-11-05T00:18:18.285Z,1003.72
2018-11-05T00:19:18.273Z,1003.74
2018-11-05T00:20:18.268Z,1003.70
2018-11-05T00:21:18.251Z,1003.71
2018-11-05T00:22:18.261Z,1003.72
2018-11-05T00:23:18.229Z,1003.72
2018-11-05T00:24:18.221Z,1003.73
2018-11-05T00:25:18.208Z,1003.72
2018-11-05T00:26:18.197Z,1003.71
2018-11-05T00:27:18.237Z,1003.73
2018-11-05T00:28:18.186Z,1003.79
2018-11-05T00:29:18.167Z,1003.82
2018-11-05T00:30:18.156Z,1003.81
2018-11-05T00:31:18.142Z,1003.76
2018-11-05T00:32:18.145Z,1003.76
2018-11-05T00:33:18.120Z,1003.74
2018-11-05T00:34:18.125Z,1003.73
2018-11-05T00:35:18.097Z,1003.74
2018-11-05T00:36:18.088Z,1003.70
2018-11-05T00:37:18.099Z,1003.70
2018-11-05T00:38:18.065Z,1003.71
2018-11-05T00:39:18.052Z,1003.72
2018-11-05T00:40:18.065Z,1003.70
2018-11-05T00:41:18.032Z,1003.72
2018-11-05T00:42:18.024Z,1003.69
2018-11-05T00:43:18.019Z,1003.63
2018-11-05T00:44:17.998Z,1003.62
2018-11-05T00:45:17.986Z,1003.62
2018-11-05T00:46:17.985Z,1003.62
2018-11-05T00:47:17.967Z,1003.55
2018-11-05T00:48:17.967Z,1003.55
2018-11-05T00:49:17.944Z,1003.57
2018-11-05T00:50:17.932Z,1003.62
2018-11-05T00:51:17.922Z,1003.58
2018-11-05T00:52:17.914Z,1003.56
2018-11-05T00:53:17.920Z,1003.55
2018-11-05T00:54:17.902Z,1003.52
2018-11-05T00:55:17.878Z,1003.45
2018-11-05T00:56:17.879Z,1003.46
2018-11-05T00:57:17.859Z,1003.44
2018-11-05T00:58:17.884Z,1003.47
2018-11-05T00:59:17.833Z,1003.46
2018-11-05T01:00:17.821Z,1003.47
2018-11-05T01:01:17.811Z,1003.44
2018-11-05T01:02:17.800Z,1003.43
2018-11-05T01:03:17.819Z,1003.43
2018-11-05T01:04:17.811Z,1003.37
2018-11-05T01:05:17.768Z,1003.36
2018-11-05T01:06:17.759Z,1003.41
2018-11-05T01:07:17.767Z,1003.35
2018-11-05T01:08:17.750Z,1003.38
2018-11-05T01:09:17.723Z,1003.38
2018-11-05T01:10:17.711Z,1003.32
2018-11-05T01:11:17.702Z,1003.33
2018-11-05T01:12:17.717Z,1003.40
2018-11-05T01:13:17.713Z,1003.39
2018-11-05T01:14:17.671Z,1003.35
2018-11-05T01:15:17.654Z,1003.34
2018-11-05T01:16:17.645Z,1003.35
2018-11-05T01:17:17.635Z,1003.31
2018-11-05T01:18:17.636Z,1003.28
2018-11-05T01:19:17.630Z,1003.34
2018-11-05T01:20:17.621Z,1003.27
2018-11-05T01:21:17.590Z,1003.27
2018-11-05T01:22:17.582Z,1003.27
2018-11-05T01:23:17.598Z,1003.23
2018-11-05T01:24:17.556Z,1003.18
2018-11-05T01:25:17.546Z,1003.19
2018-11-05T01:26:17.552Z,1003.17
2018-11-05T01:27:17.531Z,1003.16
2018-11-05T01:28:17.513Z,1003.22
2018-11-05T01:29:17.516Z,1003.20
2018-11-05T01:30:17.491Z,1003.21
2018-11-05T01:31:17.479Z,1003.24
2018-11-05T01:32:17.471Z,1003.23
2018-11-05T01:33:17.480Z,1003.22
2018-11-05T01:34:17.461Z,1003.18
2018-11-05T01:35:17.435Z,1003.20
2018-11-05T01:36:17.442Z,1003.20
2018-11-05T01:37:17.532Z,1003.22
2018-11-05T01:38:17.403Z,1003.23
2018-11-05T01:39:17.414Z,1003.24
2018-11-05T01:40:17.384Z,1003.26
2018-11-05T01:41:17.368Z,1003.27
2018-11-05T01:42:17.358Z,1003.23
2018-11-05T01:43:17.347Z,1003.20
2018-11-05T01:44:17.347Z,1003.21
2018-11-05T01:45:17.334Z,1003.19
2018-11-05T01:46:17.323Z,1003.27
2018-11-05T01:47:17.320Z,1003.22
2018-11-05T01:48:17.289Z,1003.22
2018-11-05T01:49:17.307Z,1003.19
2018-11-05T01:50:17.269Z,1003.18
2018-11-05T01:51:17.261Z,1003.14
2018-11-05T01:52:17.250Z,1003.12
2018-11-05T01:53:17.246Z,1003.09
2018-11-05T01:54:17.237Z,1003.09
2018-11-05T01:55:17.214Z,1003.12
2018-11-05T01:56:17.202Z,1003.12
2018-11-05T01:57:17.197Z,1003.10
2018-11-05T01:58:17.180Z,1003.07
2018-11-05T01:59:17.201Z,1003.06
2018-11-05T02:00:17.157Z,1003.04
2018-11-05T02:01:17.148Z,1003.01
2018-11-05T02:02:17.137Z,1003.00
2018-11-05T02:03:17.126Z,1002.93
2018-11-05T02:04:17.125Z,1002.94
2018-11-05T02:05:17.112Z,1002.85
2018-11-05T02:06:17.092Z,1002.88
2018-11-05T02:07:17.085Z,1002.83
2018-11-05T02:08:17.071Z,1002.82
2018-11-05T02:09:17.079Z,1002.80
2018-11-05T02:10:17.116Z,1002.80
2018-11-05T02:11:17.049Z,1002.71
2018-11-05T02:12:17.030Z,1002.78
2018-11-05T02:13:17.034Z,1002.77
2018-11-05T02:14:17.019Z,1002.75
2018-11-05T02:15:16.992Z,1002.73
2018-11-05T02:16:16.984Z,1002.74
2018-11-05T02:17:16.974Z,1002.71
2018-11-05T02:18:16.965Z,1002.69
2018-11-05T02:19:16.959Z,1002.67
2018-11-05T02:20:16.939Z,1002.67
2018-11-05T02:21:16.927Z,1002.63
2018-11-05T02:22:16.934Z,1002.60
2018-11-05T02:23:16.905Z,1002.58
2018-11-05T02:24:16.926Z,1002.63
2018-11-05T02:25:16.881Z,1002.66
2018-11-05T02:26:16.870Z,1002.67
2018-11-05T02:27:16.920Z,1002.72
2018-11-05T02:28:16.848Z,1002.69
2018-11-05T02:29:16.849Z,1002.77
2018-11-05T02:30:16.831Z,1002.73
2018-11-05T02:31:16.825Z,1002.65
2018-11-05T02:32:16.821Z,1002.66
2018-11-05T02:33:16.795Z,1002.72
2018-11-05T02:34:16.815Z,1002.75
2018-11-05T02:35:16.772Z,1002.72
2018-11-05T02:36:16.761Z,1002.69
2018-11-05T02:37:16.768Z,1002.72
2018-11-05T02:38:16.740Z,1002.75
2018-11-05T02:39:16.731Z,1002.75
2018-11-05T02:40:16.727Z,1002.71
2018-11-05T02:41:16.711Z,1002.70
2018-11-05T02:42:16.696Z,1002.73
2018-11-05T02:43:16.690Z,1002.68
2018-11-05T02:44:16.681Z,1002.66
2018-11-05T02:45:16.686Z,1002.66
2018-11-05T02:46:16.663Z,1002.62
2018-11-05T02:47:16.641Z,1002.55
2018-11-05T02:48:16.639Z,1002.52
2018-11-05T02:49:16.616Z,1002.48
2018-11-05T02:50:16.623Z,1002.47
2018-11-05T02:51:16.606Z,1002.42
2018-11-05T02:52:16.586Z,1002.41
2018-11-05T02:53:16.576Z,1002.47
2018-11-05T02:54:16.577Z,1002.54
2018-11-05T02:55:16.589Z,1002.52
2018-11-05T02:56:16.551Z,1002.52
2018-11-05T02:57:16.540Z,1002.53
2018-11-05T02:58:16.520Z,1002.49
2018-11-05T02:59:16.510Z,1002.52
2018-11-05T03:00:16.533Z,1002.53
2018-11-05T03:01:16.486Z,1002.48
2018-11-05T03:02:16.475Z,1002.50
2018-11-05T03:03:16.537Z,1002.57
2018-11-05T03:04:16.458Z,1002.50
2018-11-05T03:05:16.462Z,1002.44
2018-11-05T03:06:16.435Z,1002.49
2018-11-05T03:07:16.422Z,1002.42
2018-11-05T03:08:16.430Z,1002.47
2018-11-05T03:09:16.402Z,1002.50
2018-11-05T03:10:16.402Z,1002.51
2018-11-05T03:11:16.377Z,1002.45
2018-11-05T03:12:16.378Z,1002.48
2018-11-05T03:13:16.361Z,1002.48
2018-11-05T03:14:16.341Z,1002.45
2018-11-05T03:15:16.355Z,1002.42
2018-11-05T03:16:16.321Z,1002.40
2018-11-05T03:17:16.317Z,1002.40
2018-11-05T03:18:16.299Z,1002.45
2018-11-05T03:19:16.298Z,1002.40
2018-11-05T03:20:16.290Z,1002.32
2018-11-05T03:21:16.271Z,1002.35
2018-11-05T03:22:16.258Z,1002.28
2018-11-05T03:23:16.245Z,1002.30
2018-11-05T03:24:16.233Z,1002.28
2018-11-05T03:25:16.238Z,1002.23
2018-11-05T03:26:16.216Z,1002.24
2018-11-05T03:27:16.200Z,1002.17
2018-11-05T03:28:16.192Z,1002.20
2018-11-05T03:29:16.251Z,1002.25
2018-11-05T03:30:16.178Z,1002.22
2018-11-05T03:31:16.182Z,1002.25
2018-11-05T03:32:16.150Z,1002.23
2018-11-05T03:33:16.136Z,1002.23
2018-11-05T03:34:16.123Z,1002.26
2018-11-05T03:35:16.124Z,1002.28
2018-11-05T03:36:16.102Z,1002.22
2018-11-05T03:37:16.097Z,1002.22
2018-11-05T03:38:16.078Z,1002.24
2018-11-05T03:39:16.094Z,1002.18
2018-11-05T03:40:16.068Z,1002.18
2018-11-05T03:41:16.048Z,1002.17
2018-11-05T03:42:16.035Z,1002.12
2018-11-05T03:43:16.025Z,1002.14
2018-11-05T03:44:16.014Z,1002.11
2018-11-05T03:45:16.025Z,1002.06
2018-11-05T03:46:15.992Z,1002.07
2018-11-05T03:47:15.979Z,1002.09
2018-11-05T03:48:15.970Z,1002.08
2018-11-05T03:49:15.961Z,1002.06
2018-11-05T03:50:15.961Z,1002.06
2018-11-05T03:51:15.942Z,1002.02
2018-11-05T03:52:15.927Z,1001.98
2018-11-05T03:53:15.918Z,1001.97
2018-11-05T03:54:15.920Z,1001.94
2018-11-05T03:55:15.932Z,1001.95
2018-11-05T03:56:16.062Z,1001.98
2018-11-05T03:57:15.908Z,1001.94
2018-11-05T03:58:15.869Z,1001.95
2018-11-05T03:59:15.849Z,1001.94
2018-11-05T04:00:15.839Z,1001.91
2018-11-05T04:01:15.866Z,1001.95
2018-11-05T04:02:15.815Z,1001.92
2018-11-05T04:03:15.853Z,1001.92
2018-11-05T04:04:15.811Z,1001.93
2018-11-05T04:05:15.807Z,1001.92
2018-11-05T04:06:15.857Z,1001.89
2018-11-05T04:07:15.759Z,1001.89
2018-11-05T04:08:15.758Z,1001.87
2018-11-05T04:09:15.737Z,1001.87
2018-11-05T04:10:15.732Z,1001.92
2018-11-05T04:11:15.729Z,1001.95
2018-11-05T04:12:15.708Z,1001.90
2018-11-05T04:13:15.698Z,1001.95
2018-11-05T04:14:15.730Z,1001.92
2018-11-05T04:15:15.759Z,1001.93
2018-11-05T04:16:15.673Z,1001.91
2018-11-05T04:17:15.654Z,1001.86
2018-11-05T04:18:15.639Z,1001.86
2018-11-05T04:19:15.628Z,1001.88
2018-11-05T04:20:15.624Z,1001.86
2018-11-05T04:21:15.629Z,1001.86
2018-11-05T04:22:15.596Z,1001.84
2018-11-05T04:23:15.597Z,1001.86
2018-11-05T04:24:15.577Z,1001.90
2018-11-05T04:25:15.565Z,1001.91
2018-11-05T04:26:15.571Z,1001.94
2018-11-05T04:27:15.561Z,1001.91
2018-11-05T04:28:15.531Z,1001.98
2018-11-05T04:29:15.534Z,1002.00
2018-11-05T04:30:15.506Z,1002.00
2018-11-05T04:31:15.515Z,1001.98
2018-11-05T04:32:15.490Z,1001.98
2018-11-05T04:33:15.478Z,1001.99
2018-11-05T04:34:15.467Z,1001.96
2018-11-05T04:35:15.452Z,1001.95
2018-11-05T04:36:15.454Z,1001.92
2018-11-05T04:37:15.432Z,1001.92
2018-11-05T04:38:15.437Z,1001.88
2018-11-05T04:39:15.409Z,1001.94
2018-11-05T04:40:15.407Z,1001.91
2018-11-05T04:41:15.401Z,1001.89
2018-11-05T04:42:15.376Z,1001.89
2018-11-05T04:43:15.368Z,1001.84
2018-11-05T04:44:15.354Z,1001.81
2018-11-05T04:45:15.349Z,1001.84
2018-11-05T04:46:15.344Z,1001.86
2018-11-05T04:47:15.331Z,1001.85
2018-11-05T04:48:15.312Z,1001.88
2018-11-05T04:49:15.300Z,1001.88
2018-11-05T04:50:15.299Z,1001.90
2018-11-05T04:51:15.289Z,1001.96
2018-11-05T04:52:15.270Z,1001.99
2018-11-05T04:53:15.263Z,1001.99
2018-11-05T04:54:15.246Z,1002.00
2018-11-05T04:55:15.235Z,1002.01
2018-11-05T04:56:15.235Z,1001.99
2018-11-05T04:57:15.211Z,1002.01
2018-11-05T04:58:15.198Z,1001.94
2018-11-05T04:59:15.195Z,1001.90
2018-11-05T05:00:15.231Z,1001.91
2018-11-05T05:01:15.203Z,1001.83
2018-11-05T05:02:16.041Z,1001.77
2018-11-05T05:03:15.312Z,1001.80
2018-11-05T05:04:15.153Z,1001.80
2018-11-05T05:05:15.291Z,1001.75
2018-11-05T05:06:15.550Z,1001.76
2018-11-05T05:07:15.104Z,1001.74
2018-11-05T05:08:15.088Z,1001.72
2018-11-05T05:09:15.077Z,1001.75
2018-11-05T05:10:15.066Z,1001.75
2018-11-05T05:11:15.055Z,1001.75
2018-11-05T05:12:15.055Z,1001.76
2018-11-05T05:13:15.044Z,1001.77
2018-11-05T05:14:15.022Z,1001.73
2018-11-05T05:15:15.016Z,1001.73
2018-11-05T05:16:15.091Z,1001.75
2018-11-05T05:17:15.002Z,1001.76
2018-11-05T05:18:14.981Z,1001.75
2018-11-05T05:19:14.971Z,1001.84
2018-11-05T05:20:14.959Z,1001.82
2018-11-05T05:21:14.974Z,1001.83
2018-11-05T05:22:14.998Z,1001.80
2018-11-05T05:23:14.922Z,1001.75
2018-11-05T05:24:14.912Z,1001.73
2018-11-05T05:25:14.900Z,1001.75
2018-11-05T05:26:14.904Z,1001.71
2018-11-05T05:27:14.889Z,1001.70
2018-11-05T05:28:14.865Z,1001.68
2018-11-05T05:29:14.859Z,1001.69
2018-11-05T05:30:14.843Z,1001.70
2018-11-05T05:31:14.846Z,1001.74
2018-11-05T05:32:14.835Z,1001.76
2018-11-05T05:33:14.845Z,1001.78
2018-11-05T05:34:14.806Z,1001.81
2018-11-05T05:35:14.790Z,1001.74
2018-11-05T05:36:14.793Z,1001.80
2018-11-05T05:37:14.789Z,1001.82
2018-11-05T05:38:14.757Z,1001.85
2018-11-05T05:39:14.748Z,1001.87
2018-11-05T05:40:14.734Z,1001.88
2018-11-05T05:41:14.802Z,1001.85
2018-11-05T05:42:14.726Z,1001.85
2018-11-05T05:43:14.705Z,1001.86
2018-11-05T05:44:14.690Z,1001.89
2018-11-05T05:45:14.681Z,1001.90
2018-11-05T05:46:14.697Z,1001.90
2018-11-05T05:47:14.668Z,1001.82
2018-11-05T05:48:14.653Z,1001.88
2018-11-05T05:49:14.637Z,1001.89
2018-11-05T05:50:14.788Z,1001.89
2018-11-05T05:51:14.613Z,1001.90
2018-11-05T05:52:14.614Z,1001.86
2018-11-05T05:53:14.599Z,1001.85
2018-11-05T05:54:14.583Z,1001.85
2018-11-05T05:55:14.571Z,1001.84
2018-11-05T05:56:14.564Z,1001.88
2018-11-05T05:57:14.557Z,1001.88
2018-11-05T05:58:14.538Z,1001.83
2018-11-05T05:59:14.537Z,1001.81
2018-11-05T06:00:14.525Z,1001.79
2018-11-05T06:01:14.511Z,1001.80
2018-11-05T06:02:14.513Z,1001.77
2018-11-05T06:03:14.485Z,1001.76
2018-11-05T06:04:14.474Z,1001.78
2018-11-05T06:05:14.464Z,1001.77
2018-11-05T06:06:14.618Z,1001.77
2018-11-05T06:07:14.456Z,1001.77
2018-11-05T06:08:14.426Z,1001.71
2018-11-05T06:09:14.440Z,1001.72
2018-11-05T06:10:14.411Z,1001.71
2018-11-05T06:11:14.392Z,1001.74
2018-11-05T06:12:14.397Z,1001.75
2018-11-05T06:13:14.379Z,1001.72
2018-11-05T06:14:14.363Z,1001.75
2018-11-05T06:15:14.348Z,1001.72
2018-11-05T06:16:14.337Z,1001.74
2018-11-05T06:17:14.345Z,1001.75
2018-11-05T06:18:14.322Z,1001.76
2018-11-05T06:19:14.307Z,1001.74
2018-11-05T06:20:14.296Z,1001.68
2018-11-05T06:21:14.283Z,1001.67
2018-11-05T06:22:14.304Z,1001.65
2018-11-05T06:23:14.263Z,1001.67
2018-11-05T06:24:14.249Z,1001.65
2018-11-05T06:25:14.237Z,1001.69
2018-11-05T06:26:14.228Z,1001.63
2018-11-05T06:27:14.219Z,1001.66
2018-11-05T06:28:14.218Z,1001.65
2018-11-05T06:29:14.195Z,1001.68
2018-11-05T06:30:14.183Z,1001.68
2018-11-05T06:31:14.173Z,1001.69
2018-11-05T06:32:14.184Z,1001.65
2018-11-05T06:33:14.169Z,1001.66
2018-11-05T06:34:14.142Z,1001.67
2018-11-05T06:35:14.186Z,1001.59
2018-11-05T06:36:14.120Z,1001.59
2018-11-05T06:37:14.109Z,1001.62
2018-11-05T06:38:14.106Z,1001.64
2018-11-05T06:39:14.083Z,1001.67
2018-11-05T06:40:14.076Z,1001.72
2018-11-05T06:41:14.161Z,1001.81
2018-11-05T06:42:14.053Z,1001.81
2018-11-05T06:43:14.052Z,1001.81
2018-11-05T06:44:14.137Z,1001.80
2018-11-05T06:45:14.046Z,1001.75
2018-11-05T06:46:14.017Z,1001.71
2018-11-05T06:47:13.999Z,1001.69
2018-11-05T06:48:13.996Z,1001.71
2018-11-05T06:49:13.974Z,1001.70
2018-11-05T06:50:13.964Z,1001.73
2018-11-05T06:51:13.952Z,1001.74
2018-11-05T06:52:13.941Z,1001.75
2018-11-05T06:53:13.942Z,1001.78
2018-11-05T06:54:13.921Z,1001.85
2018-11-05T06:55:13.923Z,1001.91
2018-11-05T06:56:13.909Z,1001.91
2018-11-05T06:57:13.886Z,1001.94
2018-11-05T06:58:13.886Z,1001.93
2018-11-05T06:59:13.866Z,1001.94
2018-11-05T07:00:13.853Z,1001.91
2018-11-05T07:01:13.845Z,1001.91
2018-11-05T07:02:13.886Z,1001.87
2018-11-05T07:03:13.829Z,1001.86
2018-11-05T07:04:13.808Z,1001.87
2018-11-05T07:05:13.802Z,1001.88
2018-11-05T07:06:13.796Z,1001.90
2018-11-05T07:07:13.774Z,1001.91
2018-11-05T07:08:13.793Z,1001.93
2018-11-05T07:09:13.753Z,1001.88
2018-11-05T07:10:13.743Z,1001.86
2018-11-05T07:11:13.736Z,1001.75
2018-11-05T07:12:13.720Z,1001.75
2018-11-05T07:13:13.721Z,1001.77
2018-11-05T07:14:13.714Z,1001.72
2018-11-05T07:15:13.686Z,1001.77
2018-11-05T07:16:13.678Z,1001.76
2018-11-05T07:17:13.666Z,1001.78
2018-11-05T07:18:13.788Z,1001.83
2018-11-05T07:19:13.958Z,1001.78
2018-11-05T07:20:13.634Z,1001.85
2018-11-05T07:21:13.622Z,1001.93
2018-11-05T07:22:13.614Z,1001.96
2018-11-05T07:23:13.612Z,1002.03
2018-11-05T07:24:13.587Z,1002.01
2018-11-05T07:25:13.577Z,1001.97
2018-11-05T07:26:13.564Z,1001.99
2018-11-05T07:27:13.559Z,1001.96
2018-11-05T07:28:13.558Z,1001.91
2018-11-05T07:29:13.534Z,1001.91
2018-11-05T07:30:13.521Z,1001.93
2018-11-05T07:31:13.512Z,1001.95
2018-11-05T07:32:13.500Z,1001.95
2018-11-05T07:33:13.640Z,1001.93
2018-11-05T07:34:13.519Z,1001.97
2018-11-05T07:35:13.475Z,1001.93
2018-11-05T07:36:13.455Z,1001.96
2018-11-05T07:37:13.444Z,1002.02
2018-11-05T07:38:13.444Z,1001.97
2018-11-05T07:39:13.423Z,1002.05
2018-11-05T07:40:13.418Z,1001.98
2018-11-05T07:41:13.420Z,1002.02
2018-11-05T07:42:13.389Z,1002.00
2018-11-05T07:43:13.446Z,1002.04
2018-11-05T07:44:13.369Z,1002.03
2018-11-05T07:45:13.359Z,1002.03
2018-11-05T07:46:13.349Z,1002.04
2018-11-05T07:47:13.337Z,1002.03
2018-11-05T07:48:13.334Z,1002.01
2018-11-05T07:49:13.312Z,1002.03
2018-11-05T07:50:13.383Z,1002.04
2018-11-05T07:51:13.292Z,1002.03
2018-11-05T07:52:13.287Z,1002.03
2018-11-05T07:53:13.296Z,1002.05
2018-11-05T07:54:13.258Z,1002.06
2018-11-05T07:55:13.246Z,1002.09
2018-11-05T07:56:13.307Z,1002.09
2018-11-05T07:57:13.224Z,1002.07
2018-11-05T07:58:13.216Z,1002.06
2018-11-05T07:59:13.215Z,1002.07
2018-11-05T08:00:13.195Z,1002.05
2018-11-05T08:01:13.184Z,1002.05
2018-11-05T08:02:13.171Z,1002.06
2018-11-05T08:03:13.164Z,1002.06
2018-11-05T08:04:13.179Z,1002.00
2018-11-05T08:05:13.137Z,1002.02
2018-11-05T08:06:13.125Z,1002.02
2018-11-05T08:07:13.114Z,1001.98
2018-11-05T08:08:13.143Z,1001.95
2018-11-05T08:09:13.104Z,1001.97
2018-11-05T08:10:13.080Z,1001.97
2018-11-05T08:11:13.070Z,1001.94
2018-11-05T08:12:13.063Z,1001.96
2018-11-05T08:13:13.047Z,1001.94
2018-11-05T08:14:13.085Z,1001.93
2018-11-05T08:15:13.025Z,1001.95
2018-11-05T08:16:13.016Z,1001.96
2018-11-05T08:17:13.008Z,1001.95
2018-11-05T08:18:12.995Z,1001.93
2018-11-05T08:19:13.000Z,1001.95
2018-11-05T08:20:12.975Z,1001.89
2018-11-05T08:21:12.958Z,1001.87
2018-11-05T08:22:12.948Z,1001.83
2018-11-05T08:23:12.936Z,1001.84
2018-11-05T08:24:12.940Z,1001.83
2018-11-05T08:25:12.915Z,1001.90
2018-11-05T08:26:12.928Z,1001.90
2018-11-05T08:27:12.908Z,1001.89
2018-11-05T08:28:12.882Z,1001.88
2018-11-05T08:29:12.927Z,1001.88
2018-11-05T08:30:12.864Z,1001.88
2018-11-05T08:31:12.858Z,1001.82
2018-11-05T08:32:12.837Z,1001.82
2018-11-05T08:33:12.831Z,1001.81
2018-11-05T08:34:12.972Z,1001.85
2018-11-05T08:35:12.806Z,1001.82
2018-11-05T08:36:12.795Z,1001.83
2018-11-05T08:37:12.794Z,1001.79
2018-11-05T08:38:12.772Z,1001.80
2018-11-05T08:39:12.773Z,1001.78
2018-11-05T08:40:12.772Z,1001.77
2018-11-05T08:41:12.749Z,1001.72
2018-11-05T08:42:12.727Z,1001.73
2018-11-05T08:43:12.720Z,1001.74
2018-11-05T08:44:12.720Z,1001.75
2018-11-05T08:45:12.696Z,1001.76
2018-11-05T08:46:12.683Z,1001.74
2018-11-05T08:47:12.674Z,1001.73
2018-11-05T08:48:12.668Z,1001.74
2018-11-05T08:49:12.667Z,1001.71
2018-11-05T08:50:12.723Z,1001.66
2018-11-05T08:51:12.876Z,1001.68
2018-11-05T08:52:12.619Z,1001.63
2018-11-05T08:53:12.604Z,1001.64
2018-11-05T08:54:12.717Z,1001.64
2018-11-05T08:55:12.581Z,1001.67
2018-11-05T08:56:12.573Z,1001.63
2018-11-05T08:57:12.561Z,1001.64
2018-11-05T08:58:12.553Z,1001.62
2018-11-05T08:59:12.550Z,1001.57
2018-11-05T09:00:12.527Z,1001.53
2018-11-05T09:01:12.628Z,1001.51
2018-11-05T09:02:12.538Z,1001.58
2018-11-05T09:03:12.495Z,1001.60
2018-11-05T09:04:12.493Z,1001.60
2018-11-05T09:05:12.594Z,1001.59
2018-11-05T09:06:12.460Z,1001.62
2018-11-05T09:07:12.452Z,1001.63
2018-11-05T09:08:12.437Z,1001.58
2018-11-05T09:09:12.464Z,1001.56
2018-11-05T09:10:12.625Z,1001.62
2018-11-05T09:11:12.751Z,1001.59
2018-11-05T09:12:12.485Z,1001.58
2018-11-05T09:13:12.402Z,1001.62
2018-11-05T09:14:12.378Z,1001.60
2018-11-05T09:15:12.387Z,1001.60
2018-11-05T09:16:12.445Z,1001.62
2018-11-05T09:17:12.377Z,1001.62
2018-11-05T09:18:12.335Z,1001.59
2018-11-05T09:19:12.347Z,1001.54
2018-11-05T09:20:12.317Z,1001.54
2018-11-05T09:21:12.301Z,1001.49
2018-11-05T09:22:12.287Z,1001.45
2018-11-05T09:23:12.272Z,1001.43
2018-11-05T09:24:12.264Z,1001.52
2018-11-05T09:25:12.265Z,1001.54
2018-11-05T09:26:12.242Z,1001.48
2018-11-05T09:27:12.227Z,1001.51
2018-11-05T09:28:12.222Z,1001.48
2018-11-05T09:29:12.205Z,1001.43
2018-11-05T09:30:12.210Z,1001.45
2018-11-05T09:31:12.186Z,1001.49
2018-11-05T09:32:12.188Z,1001.49
2018-11-05T09:33:12.163Z,1001.54
2018-11-05T09:34:12.153Z,1001.54
2018-11-05T09:35:12.152Z,1001.53
2018-11-05T09:36:12.154Z,1001.57
2018-11-05T09:37:12.123Z,1001.56
2018-11-05T09:38:12.107Z,1001.51
2018-11-05T09:39:12.096Z,1001.52
2018-11-05T09:40:12.104Z,1001.50
2018-11-05T09:41:12.074Z,1001.49
2018-11-05T09:42:12.067Z,1001.50
2018-11-05T09:43:12.054Z,1001.55
2018-11-05T09:44:12.041Z,1001.52
2018-11-05T09:45:12.060Z,1001.51
2018-11-05T09:46:12.018Z,1001.49
2018-11-05T09:47:12.008Z,1001.48
2018-11-05T09:48:11.997Z,1001.49
2018-11-05T09:49:11.990Z,1001.49
2018-11-05T09:50:11.978Z,1001.49
2018-11-05T09:51:11.978Z,1001.45
2018-11-05T09:52:11.952Z,1001.43
2018-11-05T09:53:11.941Z,1001.45
2018-11-05T09:54:11.936Z,1001.36
2018-11-05T09:55:11.920Z,1001.42
2018-11-05T09:56:11.922Z,1001.35
2018-11-05T09:57:11.907Z,1001.37
2018-11-05T09:58:11.888Z,1001.33
2018-11-05T09:59:11.896Z,1001.30
2018-11-05T10:00:11.864Z,1001.26
2018-11-05T10:01:11.883Z,1001.27
2018-11-05T10:02:11.845Z,1001.23
2018-11-05T10:03:12.016Z,1001.22
2018-11-05T10:04:11.946Z,1001.19
2018-11-05T10:05:12.026Z,1001.15
2018-11-05T10:06:11.811Z,1001.17
2018-11-05T10:07:11.786Z,1001.17
2018-11-05T10:08:11.776Z,1001.16
2018-11-05T10:09:11.764Z,1001.23
2018-11-05T10:10:11.781Z,1001.19
2018-11-05T10:11:11.755Z,1001.19
2018-11-05T10:12:11.731Z,1001.23
2018-11-05T10:13:11.735Z,1001.17
2018-11-05T10:14:11.709Z,1001.18
2018-11-05T10:15:11.698Z,1001.16
2018-11-05T10:16:11.701Z,1001.17
2018-11-05T10:17:11.678Z,1001.18
2018-11-05T10:18:11.672Z,1001.18
2018-11-05T10:19:11.656Z,1001.14
2018-11-05T10:20:11.676Z,1001.14
2018-11-05T10:21:11.641Z,1001.10
2018-11-05T10:22:11.641Z,1001.12
2018-11-05T10:23:11.618Z,1001.10
2018-11-05T10:24:11.610Z,1001.15
2018-11-05T10:25:11.746Z,1001.13
2018-11-05T10:26:11.596Z,1001.17
2018-11-05T10:27:11.566Z,1001.17
2018-11-05T10:28:11.561Z,1001.22
2018-11-05T10:29:11.563Z,1001.25
2018-11-05T10:30:11.543Z,1001.27
2018-11-05T10:31:11.542Z,1001.20
2018-11-05T10:32:11.509Z,1001.22
2018-11-05T10:33:11.642Z,1001.22
2018-11-05T10:34:11.489Z,1001.21
2018-11-05T10:35:11.480Z,1001.18
2018-11-05T10:36:11.484Z,1001.21
2018-11-05T10:37:11.466Z,1001.20
2018-11-05T10:38:11.444Z,1001.19
2018-11-05T10:39:11.447Z,1001.15
2018-11-05T10:40:11.426Z,1001.17
2018-11-05T10:41:11.425Z,1001.13
2018-11-05T10:42:11.401Z,1001.16
2018-11-05T10:43:11.388Z,1001.11
2018-11-05T10:44:11.430Z,1001.13
2018-11-05T10:45:11.382Z,1001.08
2018-11-05T10:46:11.420Z,1001.06
2018-11-05T10:47:11.371Z,1001.02
2018-11-05T10:48:11.332Z,1001.02
2018-11-05T10:49:11.319Z,1001.01
2018-11-05T10:50:11.316Z,1001.00
2018-11-05T10:51:11.452Z,1001.00
2018-11-05T10:52:11.454Z,1000.99
2018-11-05T10:53:11.286Z,1000.98
2018-11-05T10:54:11.266Z,1000.94
2018-11-05T10:55:11.255Z,1000.94
2018-11-05T10:56:11.261Z,1000.96
2018-11-05T10:57:11.235Z,1000.91
2018-11-05T10:58:11.269Z,1000.90
2018-11-05T10:59:11.216Z,1000.89
2018-11-05T11:00:11.203Z,1000.85
2018-11-05T11:01:11.208Z,1000.82
2018-11-05T11:02:11.180Z,1000.78
2018-11-05T11:03:11.211Z,1000.75
2018-11-05T11:04:11.218Z,1000.73
2018-11-05T11:05:11.144Z,1000.76
2018-11-05T11:06:11.137Z,1000.78
2018-11-05T11:07:11.136Z,1000.78
2018-11-05T11:08:11.129Z,1000.77
2018-11-05T11:09:11.102Z,1000.77
2018-11-05T11:10:11.092Z,1000.77
2018-11-05T11:11:11.076Z,1000.74
2018-11-05T11:12:11.077Z,1000.74
2018-11-05T11:13:11.056Z,1000.67
2018-11-05T11:14:11.048Z,1000.57
2018-11-05T11:15:11.116Z,1000.53
2018-11-05T11:16:11.021Z,1000.49
2018-11-05T11:17:11.025Z,1000.48
2018-11-05T11:18:11.032Z,1000.53
2018-11-05T11:19:10.991Z,1000.52
2018-11-05T11:20:10.988Z,1000.56
2018-11-05T11:21:10.968Z,1000.58
2018-11-05T11:22:11.089Z,1000.52
2018-11-05T11:23:10.947Z,1000.54
2018-11-05T11:24:10.934Z,1000.52
2018-11-05T11:25:10.928Z,1000.48
2018-11-05T11:26:10.917Z,1000.56
2018-11-05T11:27:10.918Z,1000.53
2018-11-05T11:28:10.956Z,1000.47
2018-11-05T11:29:11.019Z,1000.47
2018-11-05T11:30:10.867Z,1000.45
2018-11-05T11:31:10.874Z,1000.50
2018-11-05T11:32:10.860Z,1000.47
2018-11-05T11:33:10.834Z,1000.50
2018-11-05T11:34:10.827Z,1000.52
2018-11-05T11:35:10.815Z,1000.54
2018-11-05T11:36:10.801Z,1000.57
2018-11-05T11:37:10.849Z,1000.56
2018-11-05T11:38:10.779Z,1000.51
2018-11-05T11:39:10.770Z,1000.54
2018-11-05T11:40:10.757Z,1000.55
2018-11-05T11:41:10.755Z,1000.54
2018-11-05T11:42:10.760Z,1000.52
2018-11-05T11:43:10.738Z,1000.54
2018-11-05T11:44:10.727Z,1000.54
2018-11-05T11:45:10.708Z,1000.56
2018-11-05T11:46:10.690Z,1000.58
2018-11-05T11:47:10.684Z,1000.63
2018-11-05T11:48:10.700Z,1000.57
2018-11-05T11:49:10.663Z,1000.55
2018-11-05T11:50:10.664Z,1000.52
2018-11-05T11:51:10.634Z,1000.44
2018-11-05T11:52:10.626Z,1000.46
2018-11-05T11:53:10.731Z,1000.42
2018-11-05T11:54:10.614Z,1000.41
2018-11-05T11:55:10.633Z,1000.36
2018-11-05T11:56:10.579Z,1000.35
2018-11-05T11:57:10.574Z,1000.38
2018-11-05T11:58:10.560Z,1000.34
2018-11-05T11:59:10.557Z,1000.36
2018-11-05T12:00:10.611Z,1000.34
2018-11-05T12:01:10.527Z,1000.34
2018-11-05T12:02:10.539Z,1000.32
2018-11-05T12:03:10.506Z,1000.32
2018-11-05T12:04:10.554Z,1000.30
2018-11-05T12:05:10.628Z,1000.29